sensor_id;sensor_type;location;lat;lon;timestamp;P1;durP1;ratioP1;P2;durP2;ratioP2
55346;SDS011;41218;55.700;38.270;2022-10-31T00:01:58;0.40;;;0.27;;
55346;SDS011;41218;55.700;38.270;2022-10-31T00:06:59;0.60;;;0.40;;
55346;SDS011;41218;55.700;38.270;2022-10-31T00:11:59;1.50;;;0.50;;
55346;SDS011;41218;55.700;38.270;2022-10-31T00:17:00;0.33;;;0.33;;
55346;SDS011;41218;55.700;38.270;2022-10-31T00:22:00;1.47;;;0.40;;
55346;SDS011;41218;55.700;38.270;2022-10-31T00:27:01;5.10;;;0.57;;
55346;SDS011;41218;55.700;38.270;2022-10-31T00:32:01;0.53;;;0.23;;
55346;SDS011;41218;55.700;38.270;2022-10-31T00:37:02;0.50;;;0.37;;
55346;SDS011;41218;55.700;38.270;2022-10-31T00:42:02;1.77;;;0.37;;
55346;SDS011;41218;55.700;38.270;2022-10-31T00:47:03;0.20;;;0.20;;
55346;SDS011;41218;55.700;38.270;2022-10-31T00:52:03;0.60;;;0.50;;
55346;SDS011;41218;55.700;38.270;2022-10-31T00:57:04;0.17;;;0.17;;
55346;SDS011;41218;55.700;38.270;2022-10-31T01:02:04;0.53;;;0.30;;
55346;SDS011;41218;55.700;38.270;2022-10-31T01:07:05;1.07;;;0.40;;
55346;SDS011;41218;55.700;38.270;2022-10-31T01:12:06;0.20;;;0.20;;
55346;SDS011;41218;55.700;38.270;2022-10-31T01:17:06;3.28;;;0.40;;
55346;SDS011;41218;55.700;38.270;2022-10-31T01:22:07;0.30;;;0.30;;
55346;SDS011;41218;55.700;38.270;2022-10-31T01:27:07;0.20;;;0.20;;
55346;SDS011;41218;55.700;38.270;2022-10-31T01:32:08;1.20;;;0.60;;
55346;SDS011;41218;55.700;38.270;2022-10-31T01:37:08;1.00;;;0.50;;
55346;SDS011;41218;55.700;38.270;2022-10-31T01:42:10;0.43;;;0.27;;
55346;SDS011;41218;55.700;38.270;2022-10-31T01:47:18;0.88;;;0.40;;
55346;SDS011;41218;55.700;38.270;2022-10-31T01:52:38;0.38;;;0.30;;
55346;SDS011;41218;55.700;38.270;2022-10-31T01:57:45;0.30;;;0.30;;
55346;SDS011;41218;55.700;38.270;2022-10-31T02:02:48;0.38;;;0.30;;
55346;SDS011;41218;55.700;38.270;2022-10-31T02:08:04;0.10;;;0.10;;
55346;SDS011;41218;55.700;38.270;2022-10-31T02:13:09;0.85;;;0.50;;
55346;SDS011;41218;55.700;38.270;2022-10-31T02:18:12;0.45;;;0.40;;
55346;SDS011;41218;55.700;38.270;2022-10-31T02:39:17;0.68;;;0.55;;
55346;SDS011;41218;55.700;38.270;2022-10-31T02:44:36;3.13;;;0.60;;
55346;SDS011;41218;55.700;38.270;2022-10-31T02:49:47;2.25;;;1.35;;
55346;SDS011;41218;55.700;38.270;2022-10-31T02:54:49;2.80;;;1.50;;
55346;SDS011;41218;55.700;38.270;2022-10-31T02:59:51;2.08;;;1.48;;
55346;SDS011;41218;55.700;38.270;2022-10-31T03:05:01;2.40;;;1.30;;
55346;SDS011;41218;55.700;38.270;2022-10-31T03:15:53;6.95;;;1.55;;
55346;SDS011;41218;55.700;38.270;2022-10-31T03:21:23;4.47;;;1.70;;
55346;SDS011;41218;55.700;38.270;2022-10-31T03:26:27;0.95;;;0.68;;
55346;SDS011;41218;55.700;38.270;2022-10-31T03:31:29;1.17;;;0.50;;
55346;SDS011;41218;55.700;38.270;2022-10-31T03:36:36;1.52;;;0.90;;
55346;SDS011;41218;55.700;38.270;2022-10-31T03:41:40;1.35;;;0.47;;
55346;SDS011;41218;55.700;38.270;2022-10-31T03:46:43;0.32;;;0.28;;
55346;SDS011;41218;55.700;38.270;2022-10-31T03:51:49;0.63;;;0.47;;
55346;SDS011;41218;55.700;38.270;2022-10-31T04:02:10;1.20;;;0.70;;
55346;SDS011;41218;55.700;38.270;2022-10-31T04:07:15;1.55;;;0.82;;
55346;SDS011;41218;55.700;38.270;2022-10-31T04:12:17;1.95;;;0.90;;
55346;SDS011;41218;55.700;38.270;2022-10-31T04:17:21;1.92;;;0.85;;
55346;SDS011;41218;55.700;38.270;2022-10-31T04:22:24;1.10;;;0.88;;
55346;SDS011;41218;55.700;38.270;2022-10-31T04:27:25;1.43;;;0.60;;
55346;SDS011;41218;55.700;38.270;2022-10-31T04:32:25;2.33;;;0.80;;
55346;SDS011;41218;55.700;38.270;2022-10-31T04:37:26;1.23;;;0.80;;
55346;SDS011;41218;55.700;38.270;2022-10-31T04:42:30;1.17;;;0.70;;
55346;SDS011;41218;55.700;38.270;2022-10-31T04:47:33;1.05;;;0.70;;
55346;SDS011;41218;55.700;38.270;2022-10-31T04:52:41;1.45;;;0.90;;
55346;SDS011;41218;55.700;38.270;2022-10-31T04:57:43;0.77;;;0.60;;
55346;SDS011;41218;55.700;38.270;2022-10-31T05:02:48;5.10;;;0.68;;
55346;SDS011;41218;55.700;38.270;2022-10-31T05:07:51;1.33;;;0.98;;
55346;SDS011;41218;55.700;38.270;2022-10-31T05:12:57;1.60;;;0.88;;
55346;SDS011;41218;55.700;38.270;2022-10-31T05:17:59;1.30;;;0.73;;
55346;SDS011;41218;55.700;38.270;2022-10-31T05:22:59;1.80;;;0.80;;
55346;SDS011;41218;55.700;38.270;2022-10-31T05:28:00;1.10;;;0.90;;
55346;SDS011;41218;55.700;38.270;2022-10-31T05:33:00;4.30;;;0.80;;
55346;SDS011;41218;55.700;38.270;2022-10-31T05:38:01;2.45;;;0.90;;
55346;SDS011;41218;55.700;38.270;2022-10-31T05:43:02;3.20;;;1.00;;
55346;SDS011;41218;55.700;38.270;2022-10-31T05:48:02;4.00;;;1.07;;
55346;SDS011;41218;55.700;38.270;2022-10-31T05:53:05;1.65;;;0.93;;
55346;SDS011;41218;55.700;38.270;2022-10-31T05:58:06;0.63;;;0.30;;
55346;SDS011;41218;55.700;38.270;2022-10-31T06:03:07;3.63;;;1.47;;
55346;SDS011;41218;55.700;38.270;2022-10-31T06:08:08;3.38;;;1.55;;
55346;SDS011;41218;55.700;38.270;2022-10-31T06:13:09;3.40;;;1.57;;
55346;SDS011;41218;55.700;38.270;2022-10-31T06:18:09;1.60;;;0.73;;
55346;SDS011;41218;55.700;38.270;2022-10-31T06:23:10;4.87;;;0.80;;
55346;SDS011;41218;55.700;38.270;2022-10-31T06:28:10;2.87;;;1.30;;
55346;SDS011;41218;55.700;38.270;2022-10-31T06:33:11;2.33;;;0.87;;
55346;SDS011;41218;55.700;38.270;2022-10-31T06:38:11;0.90;;;0.67;;
55346;SDS011;41218;55.700;38.270;2022-10-31T06:43:12;2.00;;;0.77;;
55346;SDS011;41218;55.700;38.270;2022-10-31T06:48:14;2.65;;;1.30;;
55346;SDS011;41218;55.700;38.270;2022-10-31T06:53:14;2.40;;;1.20;;
55346;SDS011;41218;55.700;38.270;2022-10-31T06:58:15;2.27;;;0.90;;
55346;SDS011;41218;55.700;38.270;2022-10-31T07:03:16;1.10;;;0.73;;
55346;SDS011;41218;55.700;38.270;2022-10-31T07:08:17;0.80;;;0.60;;
55346;SDS011;41218;55.700;38.270;2022-10-31T07:13:17;4.00;;;0.90;;
55346;SDS011;41218;55.700;38.270;2022-10-31T07:18:18;0.37;;;0.37;;
55346;SDS011;41218;55.700;38.270;2022-10-31T07:23:18;2.60;;;1.10;;
55346;SDS011;41218;55.700;38.270;2022-10-31T07:28:19;1.73;;;1.08;;
55346;SDS011;41218;55.700;38.270;2022-10-31T07:33:20;1.30;;;0.90;;
55346;SDS011;41218;55.700;38.270;2022-10-31T07:38:21;1.73;;;1.00;;
55346;SDS011;41218;55.700;38.270;2022-10-31T07:43:22;2.30;;;1.23;;
55346;SDS011;41218;55.700;38.270;2022-10-31T07:48:22;0.80;;;0.55;;
55346;SDS011;41218;55.700;38.270;2022-10-31T07:53:23;1.17;;;0.70;;
55346;SDS011;41218;55.700;38.270;2022-10-31T07:58:23;0.50;;;0.30;;
55346;SDS011;41218;55.700;38.270;2022-10-31T08:03:25;0.88;;;0.30;;
55346;SDS011;41218;55.700;38.270;2022-10-31T08:08:25;1.17;;;0.80;;
55346;SDS011;41218;55.700;38.270;2022-10-31T08:13:28;1.40;;;0.60;;
55346;SDS011;41218;55.700;38.270;2022-10-31T08:18:28;1.20;;;1.00;;
55346;SDS011;41218;55.700;38.270;2022-10-31T08:23:29;1.25;;;0.93;;
55346;SDS011;41218;55.700;38.270;2022-10-31T08:28:29;1.50;;;1.07;;
55346;SDS011;41218;55.700;38.270;2022-10-31T08:33:30;1.80;;;0.90;;
55346;SDS011;41218;55.700;38.270;2022-10-31T08:38:30;1.07;;;0.67;;
55346;SDS011;41218;55.700;38.270;2022-10-31T08:43:31;1.20;;;0.67;;
55346;SDS011;41218;55.700;38.270;2022-10-31T08:48:31;1.33;;;0.60;;
55346;SDS011;41218;55.700;38.270;2022-10-31T08:53:32;1.40;;;0.93;;
55346;SDS011;41218;55.700;38.270;2022-10-31T08:58:33;0.30;;;0.30;;
55346;SDS011;41218;55.700;38.270;2022-10-31T09:03:33;1.30;;;0.30;;
55346;SDS011;41218;55.700;38.270;2022-10-31T09:08:34;1.95;;;1.05;;
55346;SDS011;41218;55.700;38.270;2022-10-31T09:18:36;1.47;;;0.77;;
55346;SDS011;41218;55.700;38.270;2022-10-31T09:23:36;3.00;;;0.73;;
55346;SDS011;41218;55.700;38.270;2022-10-31T09:28:37;0.93;;;0.40;;
55346;SDS011;41218;55.700;38.270;2022-10-31T09:33:38;2.30;;;0.90;;
55346;SDS011;41218;55.700;38.270;2022-10-31T09:38:38;1.17;;;0.87;;
55346;SDS011;41218;55.700;38.270;2022-10-31T09:59:37;1.47;;;0.70;;
55346;SDS011;41218;55.700;38.270;2022-10-31T10:04:56;1.77;;;1.10;;
55346;SDS011;41218;55.700;38.270;2022-10-31T10:10:00;2.63;;;0.97;;
55346;SDS011;41218;55.700;38.270;2022-10-31T10:25:50;2.45;;;1.30;;
55346;SDS011;41218;55.700;38.270;2022-10-31T10:31:03;1.20;;;0.90;;
55346;SDS011;41218;55.700;38.270;2022-10-31T10:36:12;2.85;;;1.40;;
55346;SDS011;41218;55.700;38.270;2022-10-31T10:41:20;2.22;;;1.60;;
55346;SDS011;41218;55.700;38.270;2022-10-31T11:02:55;2.83;;;1.40;;
55346;SDS011;41218;55.700;38.270;2022-10-31T11:07:56;3.28;;;1.35;;
55346;SDS011;41218;55.700;38.270;2022-10-31T11:13:06;0.60;;;0.60;;
55346;SDS011;41218;55.700;38.270;2022-10-31T11:18:29;2.45;;;1.13;;
55346;SDS011;41218;55.700;38.270;2022-10-31T11:23:32;2.85;;;1.13;;
55346;SDS011;41218;55.700;38.270;2022-10-31T11:28:33;3.47;;;0.95;;
55346;SDS011;41218;55.700;38.270;2022-10-31T11:33:46;4.60;;;1.50;;
55346;SDS011;41218;55.700;38.270;2022-10-31T11:38:50;4.30;;;1.65;;
55346;SDS011;41218;55.700;38.270;2022-10-31T11:43:53;3.55;;;1.58;;
55346;SDS011;41218;55.700;38.270;2022-10-31T11:48:57;2.35;;;1.10;;
55346;SDS011;41218;55.700;38.270;2022-10-31T11:53:58;5.50;;;1.10;;
55346;SDS011;41218;55.700;38.270;2022-10-31T11:59:02;1.13;;;0.75;;
55346;SDS011;41218;55.700;38.270;2022-10-31T12:04:11;0.65;;;0.57;;
55346;SDS011;41218;55.700;38.270;2022-10-31T12:09:21;1.08;;;0.70;;
55346;SDS011;41218;55.700;38.270;2022-10-31T12:19:51;4.20;;;1.20;;
55346;SDS011;41218;55.700;38.270;2022-10-31T12:41:33;3.17;;;1.20;;
55346;SDS011;41218;55.700;38.270;2022-10-31T12:57:52;1.65;;;1.05;;
55346;SDS011;41218;55.700;38.270;2022-10-31T13:08:05;2.75;;;1.02;;
55346;SDS011;41218;55.700;38.270;2022-10-31T13:13:14;3.72;;;1.50;;
55346;SDS011;41218;55.700;38.270;2022-10-31T13:18:41;3.20;;;1.45;;
55346;SDS011;41218;55.700;38.270;2022-10-31T13:23:43;2.70;;;0.88;;
55346;SDS011;41218;55.700;38.270;2022-10-31T13:28:47;5.85;;;1.40;;
55346;SDS011;41218;55.700;38.270;2022-10-31T13:33:56;4.05;;;1.52;;
55346;SDS011;41218;55.700;38.270;2022-10-31T13:39:23;2.35;;;1.15;;
55346;SDS011;41218;55.700;38.270;2022-10-31T13:44:35;4.55;;;1.70;;
55346;SDS011;41218;55.700;38.270;2022-10-31T13:49:39;1.70;;;0.88;;
55346;SDS011;41218;55.700;38.270;2022-10-31T13:54:44;2.33;;;1.10;;
55346;SDS011;41218;55.700;38.270;2022-10-31T13:59:50;2.30;;;0.80;;
55346;SDS011;41218;55.700;38.270;2022-10-31T14:04:58;0.80;;;0.68;;
55346;SDS011;41218;55.700;38.270;2022-10-31T14:10:35;1.20;;;0.85;;
55346;SDS011;41218;55.700;38.270;2022-10-31T14:15:32;1.40;;;0.90;;
55346;SDS011;41218;55.700;38.270;2022-10-31T14:20:40;0.93;;;0.88;;
55346;SDS011;41218;55.700;38.270;2022-10-31T14:25:42;0.52;;;0.43;;
55346;SDS011;41218;55.700;38.270;2022-10-31T14:30:50;1.70;;;0.80;;
55346;SDS011;41218;55.700;38.270;2022-10-31T14:46:38;1.42;;;0.40;;
55346;SDS011;41218;55.700;38.270;2022-10-31T14:51:59;0.70;;;0.55;;
55346;SDS011;41218;55.700;38.270;2022-10-31T14:57:05;2.30;;;0.75;;
55346;SDS011;41218;55.700;38.270;2022-10-31T15:02:33;0.30;;;0.30;;
55346;SDS011;41218;55.700;38.270;2022-10-31T15:07:53;1.70;;;0.30;;
55346;SDS011;41218;55.700;38.270;2022-10-31T15:12:55;0.32;;;0.32;;
55346;SDS011;41218;55.700;38.270;2022-10-31T15:18:13;1.95;;;0.70;;
55346;SDS011;41218;55.700;38.270;2022-10-31T15:23:21;0.30;;;0.22;;
55346;SDS011;41218;55.700;38.270;2022-10-31T15:28:24;0.57;;;0.47;;
55346;SDS011;41218;55.700;38.270;2022-10-31T15:33:26;0.47;;;0.47;;
55346;SDS011;41218;55.700;38.270;2022-10-31T15:38:31;0.68;;;0.50;;
55346;SDS011;41218;55.700;38.270;2022-10-31T15:48:35;0.38;;;0.35;;
55346;SDS011;41218;55.700;38.270;2022-10-31T15:53:42;0.57;;;0.55;;
55346;SDS011;41218;55.700;38.270;2022-10-31T15:58:48;0.73;;;0.60;;
55346;SDS011;41218;55.700;38.270;2022-10-31T16:04:01;1.90;;;0.93;;
55346;SDS011;41218;55.700;38.270;2022-10-31T16:09:20;2.00;;;0.53;;
55346;SDS011;41218;55.700;38.270;2022-10-31T16:14:31;0.68;;;0.57;;
55346;SDS011;41218;55.700;38.270;2022-10-31T16:19:44;1.25;;;0.68;;
55346;SDS011;41218;55.700;38.270;2022-10-31T16:30:03;1.23;;;0.52;;
55346;SDS011;41218;55.700;38.270;2022-10-31T16:35:26;0.30;;;0.30;;
55346;SDS011;41218;55.700;38.270;2022-10-31T16:40:31;0.50;;;0.40;;
55346;SDS011;41218;55.700;38.270;2022-10-31T16:45:32;0.45;;;0.30;;
55346;SDS011;41218;55.700;38.270;2022-10-31T16:50:33;0.50;;;0.50;;
55346;SDS011;41218;55.700;38.270;2022-10-31T16:55:34;0.23;;;0.23;;
55346;SDS011;41218;55.700;38.270;2022-10-31T17:00:41;1.63;;;1.02;;
55346;SDS011;41218;55.700;38.270;2022-10-31T17:05:41;5.50;;;1.03;;
55346;SDS011;41218;55.700;38.270;2022-10-31T17:10:42;1.30;;;0.70;;
55346;SDS011;41218;55.700;38.270;2022-10-31T17:15:45;1.50;;;0.90;;
55346;SDS011;41218;55.700;38.270;2022-10-31T17:20:48;2.97;;;0.80;;
55346;SDS011;41218;55.700;38.270;2022-10-31T17:25:48;1.50;;;0.80;;
55346;SDS011;41218;55.700;38.270;2022-10-31T17:30:49;0.47;;;0.47;;
55346;SDS011;41218;55.700;38.270;2022-10-31T17:35:49;1.70;;;0.83;;
55346;SDS011;41218;55.700;38.270;2022-10-31T17:40:50;0.73;;;0.70;;
55346;SDS011;41218;55.700;38.270;2022-10-31T17:45:51;0.73;;;0.67;;
55346;SDS011;41218;55.700;38.270;2022-10-31T17:50:51;1.90;;;0.97;;
55346;SDS011;41218;55.700;38.270;2022-10-31T17:55:52;1.57;;;0.90;;
55346;SDS011;41218;55.700;38.270;2022-10-31T18:00:53;1.83;;;1.00;;
55346;SDS011;41218;55.700;38.270;2022-10-31T18:05:57;0.83;;;0.47;;
55346;SDS011;41218;55.700;38.270;2022-10-31T18:10:58;0.40;;;0.38;;
55346;SDS011;41218;55.700;38.270;2022-10-31T18:15:59;0.65;;;0.45;;
55346;SDS011;41218;55.700;38.270;2022-10-31T18:21:00;0.93;;;0.60;;
55346;SDS011;41218;55.700;38.270;2022-10-31T18:26:01;1.77;;;0.67;;
55346;SDS011;41218;55.700;38.270;2022-10-31T18:31:01;0.70;;;0.60;;
55346;SDS011;41218;55.700;38.270;2022-10-31T18:36:03;0.47;;;0.43;;
55346;SDS011;41218;55.700;38.270;2022-10-31T18:41:06;0.52;;;0.32;;
55346;SDS011;41218;55.700;38.270;2022-10-31T18:46:08;1.73;;;0.82;;
55346;SDS011;41218;55.700;38.270;2022-10-31T18:51:11;1.65;;;0.80;;
55346;SDS011;41218;55.700;38.270;2022-10-31T18:56:13;1.60;;;1.02;;
55346;SDS011;41218;55.700;38.270;2022-10-31T19:01:15;1.97;;;0.90;;
55346;SDS011;41218;55.700;38.270;2022-10-31T19:06:16;0.85;;;0.63;;
55346;SDS011;41218;55.700;38.270;2022-10-31T19:11:17;0.93;;;0.30;;
55346;SDS011;41218;55.700;38.270;2022-10-31T19:16:17;1.07;;;0.30;;
55346;SDS011;41218;55.700;38.270;2022-10-31T19:21:18;1.00;;;0.53;;
55346;SDS011;41218;55.700;38.270;2022-10-31T19:26:18;1.33;;;0.67;;
55346;SDS011;41218;55.700;38.270;2022-10-31T19:31:19;1.10;;;0.70;;
55346;SDS011;41218;55.700;38.270;2022-10-31T19:36:20;1.43;;;0.97;;
55346;SDS011;41218;55.700;38.270;2022-10-31T19:41:22;1.73;;;0.73;;
55346;SDS011;41218;55.700;38.270;2022-10-31T19:46:27;0.70;;;0.40;;
55346;SDS011;41218;55.700;38.270;2022-10-31T19:51:28;0.50;;;0.40;;
55346;SDS011;41218;55.700;38.270;2022-10-31T19:56:28;0.57;;;0.47;;
55346;SDS011;41218;55.700;38.270;2022-10-31T20:01:29;1.33;;;0.70;;
55346;SDS011;41218;55.700;38.270;2022-10-31T20:06:31;1.50;;;0.60;;
55346;SDS011;41218;55.700;38.270;2022-10-31T20:11:40;2.65;;;0.65;;
55346;SDS011;41218;55.700;38.270;2022-10-31T20:16:42;0.82;;;0.50;;
55346;SDS011;41218;55.700;38.270;2022-10-31T20:21:43;1.40;;;0.70;;
55346;SDS011;41218;55.700;38.270;2022-10-31T20:26:44;1.00;;;0.40;;
55346;SDS011;41218;55.700;38.270;2022-10-31T20:31:45;0.80;;;0.70;;
55346;SDS011;41218;55.700;38.270;2022-10-31T20:36:46;0.95;;;0.68;;
55346;SDS011;41218;55.700;38.270;2022-10-31T20:41:47;1.55;;;0.70;;
55346;SDS011;41218;55.700;38.270;2022-10-31T20:46:47;3.27;;;0.57;;
55346;SDS011;41218;55.700;38.270;2022-10-31T20:51:48;0.57;;;0.50;;
55346;SDS011;41218;55.700;38.270;2022-10-31T20:56:48;0.97;;;0.50;;
55346;SDS011;41218;55.700;38.270;2022-10-31T21:01:49;1.00;;;0.60;;
55346;SDS011;41218;55.700;38.270;2022-10-31T21:06:49;1.20;;;0.70;;
55346;SDS011;41218;55.700;38.270;2022-10-31T21:11:50;0.80;;;0.43;;
55346;SDS011;41218;55.700;38.270;2022-10-31T21:16:50;0.40;;;0.40;;
55346;SDS011;41218;55.700;38.270;2022-10-31T21:21:51;0.43;;;0.30;;
55346;SDS011;41218;55.700;38.270;2022-10-31T21:26:51;0.40;;;0.30;;
55346;SDS011;41218;55.700;38.270;2022-10-31T21:31:53;1.30;;;0.70;;
55346;SDS011;41218;55.700;38.270;2022-10-31T21:36:53;1.60;;;0.80;;
55346;SDS011;41218;55.700;38.270;2022-10-31T21:41:53;0.27;;;0.17;;
55346;SDS011;41218;55.700;38.270;2022-10-31T21:46:54;0.30;;;0.30;;
55346;SDS011;41218;55.700;38.270;2022-10-31T21:51:54;0.87;;;0.50;;
55346;SDS011;41218;55.700;38.270;2022-10-31T21:56:56;0.40;;;0.40;;
55346;SDS011;41218;55.700;38.270;2022-10-31T22:01:58;1.05;;;0.40;;
55346;SDS011;41218;55.700;38.270;2022-10-31T22:07:00;1.25;;;0.52;;
55346;SDS011;41218;55.700;38.270;2022-10-31T22:12:00;0.40;;;0.30;;
55346;SDS011;41218;55.700;38.270;2022-10-31T22:17:05;0.70;;;0.43;;
55346;SDS011;41218;55.700;38.270;2022-10-31T22:27:07;0.23;;;0.20;;
55346;SDS011;41218;55.700;38.270;2022-10-31T22:32:07;0.93;;;0.40;;
55346;SDS011;41218;55.700;38.270;2022-10-31T22:37:08;2.90;;;0.43;;
55346;SDS011;41218;55.700;38.270;2022-10-31T22:42:08;1.27;;;0.60;;
55346;SDS011;41218;55.700;38.270;2022-10-31T22:47:09;1.03;;;0.53;;
55346;SDS011;41218;55.700;38.270;2022-10-31T22:52:09;0.83;;;0.60;;
55346;SDS011;41218;55.700;38.270;2022-10-31T22:57:10;0.80;;;0.60;;
55346;SDS011;41218;55.700;38.270;2022-10-31T23:02:10;1.20;;;0.70;;
55346;SDS011;41218;55.700;38.270;2022-10-31T23:07:11;1.13;;;0.70;;
55346;SDS011;41218;55.700;38.270;2022-10-31T23:12:11;2.77;;;0.63;;
55346;SDS011;41218;55.700;38.270;2022-10-31T23:17:30;1.05;;;0.65;;
55346;SDS011;41218;55.700;38.270;2022-10-31T23:22:31;1.33;;;0.70;;
55346;SDS011;41218;55.700;38.270;2022-10-31T23:27:31;0.57;;;0.40;;
55346;SDS011;41218;55.700;38.270;2022-10-31T23:32:33;0.80;;;0.40;;
55346;SDS011;41218;55.700;38.270;2022-10-31T23:37:36;0.20;;;0.20;;
55346;SDS011;41218;55.700;38.270;2022-10-31T23:42:37;0.43;;;0.40;;
55346;SDS011;41218;55.700;38.270;2022-10-31T23:47:38;0.67;;;0.50;;
55346;SDS011;41218;55.700;38.270;2022-10-31T23:52:38;0.87;;;0.60;;
55346;SDS011;41218;55.700;38.270;2022-10-31T23:57:39;0.77;;;0.53;;
